Cape Dorset Airport
CYTE : now visible

Airfield :











YOU CAN JOIN US ON...

 
LOGIN :

Register | Disclaimer

   EN    FR    IT 

 









Legend :    VFR   Marginal VFR   IFR   Intensive IFR   Very Intensive IFR
Visi :
Ceiling :
>= 8 km
>= 3000ft
5 to 8 km
1000 to 3000 ft
1500m to 5 km
500 to 1000 ft
800 to 1500m
200 to 500 ft
< 800m
< 200 ft
Symbols :   Thunderstorms  Fog  Heavy snow  Heavy precipitations  Wind > 20 kt






- Airport Elevation : 164 ft
- IATA code : YTE


CYTE - Cape Dorset

CURRENT METAR :
  • 221500Z AUTO 23014G20KT 2SM -SN OVC036 M16/M18 A2883 RMK VIS VRB 1 1/4-3 SLP772

EXPIRED METARs :
  • 221431Z AUTO 23017KT 1 1/2SM -SN OVC026 M16/M18 A2882 RMK SLP768
  • 221411Z AUTO 22015G20KT 1SM -SN VV018 M16/M17 A2882 RMK SLP767
  • 221354Z AUTO 21011G18KT 3/4SM -SN VV015 M14/M16 A2882 RMK SLP765
  • 221343Z AUTO 18009G15KT 110V200 2 1/2SM -SN SCT013 OVC020 M14/M16 A2882 RMK SLP765
  • 221340Z AUTO 15012KT 4SM -SN SCT013 OVC023 M14/M15 A2881 RMK SLP764
  • 221316Z AUTO 12013KT 6SM -SN BKN015 OVC022 M14/M16 A2881 RMK SLP763
  • 221300Z AUTO 12011KT 5SM -SN BKN022 OVC029 M14/M16 A2881 RMK SLP763
  • 221243Z AUTO 12012KT 5SM -SN FEW014 BKN024 OVC029 M14/M16 A2881 RMK SLP762
  • 221242Z AUTO 12012KT 6SM -SN BKN024 BKN029 OVC035 M14/M16 A2881 RMK SLP762
  • 221228Z AUTO 11015KT 6SM -SN BKN024 OVC035 M14/M16 A2880 RMK SLP760
  • 221224Z AUTO 11015KT 4SM -SN BKN024 OVC035 M14/M16 A2880 RMK SLP759

TAF AMD TAF CYTE
Valid from the 22 at 14:00 until the 23 at 01:00 UTC


221413Z 2214/2301 22015KT P6SM -SN SCT015 BKN030
TEMPO 2214/2301 3/4SM -SN VV015 RMK FCST BASED ON AUTO OBS. NXT FCST BY 221900Z
CZEG FIR / North America



MET'MAP, your aeronautical weather chart ! - Copyright ORBIFLY December 2007 - Disclaimer

ORBIFLY MET'MAP TEAM :

Programming & Development : Alexandra Zaïnal
Concept & original design : Baudouin d'Aumeries
Assistance for programming : Marc-Olivier Méhu
Technical & hardware support : Manuel Goepfert

Contact : metmap@orbifly.com




SOURCES & CREDITS :

   NOAA       Earth
Advisory